sensor_id;sensor_type;location;lat;lon;timestamp;pressure;altitude;pressure_sealevel;temperature;humidity
49915;BME280;35806;47.958;13.158;2023-03-18T00:01:08;94262.10;;;4.63;48.28
49915;BME280;35806;47.958;13.158;2023-03-18T00:03:36;94265.87;;;4.86;48.89
49915;BME280;35806;47.958;13.158;2023-03-18T00:06:06;94267.52;;;4.78;49.24
49915;BME280;35806;47.958;13.158;2023-03-18T00:08:34;94270.46;;;5.04;48.56
49915;BME280;35806;47.958;13.158;2023-03-18T00:11:01;94271.18;;;5.62;47.76
49915;BME280;35806;47.958;13.158;2023-03-18T00:13:28;94273.45;;;4.52;49.28
49915;BME280;35806;47.958;13.158;2023-03-18T00:15:55;94278.14;;;5.38;48.48
49915;BME280;35806;47.958;13.158;2023-03-18T00:18:23;94279.57;;;5.09;48.74
49915;BME280;35806;47.958;13.158;2023-03-18T00:20:50;94282.63;;;4.70;49.82
49915;BME280;35806;47.958;13.158;2023-03-18T00:23:17;94283.01;;;5.02;48.72
49915;BME280;35806;47.958;13.158;2023-03-18T00:25:46;94286.44;;;5.16;48.59
49915;BME280;35806;47.958;13.158;2023-03-18T00:28:14;94289.83;;;5.19;48.99
49915;BME280;35806;47.958;13.158;2023-03-18T00:30:41;94292.60;;;4.33;49.54
49915;BME280;35806;47.958;13.158;2023-03-18T00:33:09;94300.01;;;5.30;48.88
49915;BME280;35806;47.958;13.158;2023-03-18T00:35:37;94304.17;;;5.08;49.04
49915;BME280;35806;47.958;13.158;2023-03-18T00:38:04;94306.43;;;4.43;50.57
49915;BME280;35806;47.958;13.158;2023-03-18T00:40:39;94309.93;;;4.90;49.57
49915;BME280;35806;47.958;13.158;2023-03-18T00:43:06;94312.09;;;4.90;49.91
49915;BME280;35806;47.958;13.158;2023-03-18T00:45:36;94313.76;;;4.19;50.72
49915;BME280;35806;47.958;13.158;2023-03-18T00:48:04;94316.52;;;4.38;51.26
49915;BME280;35806;47.958;13.158;2023-03-18T00:50:31;94317.07;;;5.14;49.80
49915;BME280;35806;47.958;13.158;2023-03-18T00:52:59;94317.79;;;4.94;50.93
49915;BME280;35806;47.958;13.158;2023-03-18T00:55:26;94316.12;;;5.23;50.97
49915;BME280;35806;47.958;13.158;2023-03-18T00:57:53;94314.61;;;4.22;53.18
49915;BME280;35806;47.958;13.158;2023-03-18T01:00:21;94319.91;;;4.90;51.41
49915;BME280;35806;47.958;13.158;2023-03-18T01:02:48;94322.06;;;4.63;51.27
49915;BME280;35806;47.958;13.158;2023-03-18T01:05:15;94318.68;;;5.08;50.91
49915;BME280;35806;47.958;13.158;2023-03-18T01:07:42;94317.80;;;5.41;50.82
49915;BME280;35806;47.958;13.158;2023-03-18T01:10:11;94314.22;;;4.98;50.62
49915;BME280;35806;47.958;13.158;2023-03-18T01:12:40;94315.31;;;4.43;53.32
49915;BME280;35806;47.958;13.158;2023-03-18T01:15:09;94313.16;;;4.83;52.48
49915;BME280;35806;47.958;13.158;2023-03-18T01:17:39;94309.55;;;5.03;52.71
49915;BME280;35806;47.958;13.158;2023-03-18T01:20:06;94310.63;;;4.76;53.07
49915;BME280;35806;47.958;13.158;2023-03-18T01:22:34;94309.09;;;5.63;50.83
49915;BME280;35806;47.958;13.158;2023-03-18T01:25:01;94310.32;;;4.83;52.12
49915;BME280;35806;47.958;13.158;2023-03-18T01:27:29;94315.06;;;4.79;51.86
49915;BME280;35806;47.958;13.158;2023-03-18T01:29:56;94314.71;;;4.99;51.33
49915;BME280;35806;47.958;13.158;2023-03-18T01:32:24;94314.75;;;4.50;51.44
49915;BME280;35806;47.958;13.158;2023-03-18T01:34:51;94315.59;;;5.35;50.19
49915;BME280;35806;47.958;13.158;2023-03-18T01:37:19;94314.76;;;4.69;51.64
49915;BME280;35806;47.958;13.158;2023-03-18T01:39:46;94314.96;;;4.50;51.73
49915;BME280;35806;47.958;13.158;2023-03-18T01:42:13;94312.14;;;5.34;50.94
49915;BME280;35806;47.958;13.158;2023-03-18T01:44:41;94310.93;;;5.08;51.60
49915;BME280;35806;47.958;13.158;2023-03-18T01:47:08;94318.24;;;4.51;52.28
49915;BME280;35806;47.958;13.158;2023-03-18T01:49:38;94315.16;;;5.32;52.09
49915;BME280;35806;47.958;13.158;2023-03-18T01:52:09;94317.35;;;4.47;52.55
49915;BME280;35806;47.958;13.158;2023-03-18T01:54:42;94315.38;;;4.29;52.03
49915;BME280;35806;47.958;13.158;2023-03-18T01:57:09;94320.14;;;4.98;51.84
49915;BME280;35806;47.958;13.158;2023-03-18T01:59:40;94320.17;;;4.37;53.31
49915;BME280;35806;47.958;13.158;2023-03-18T02:15:31;94316.08;;;4.37;49.96
49915;BME280;35806;47.958;13.158;2023-03-18T02:18:01;94318.78;;;4.95;50.83
49915;BME280;35806;47.958;13.158;2023-03-18T02:20:42;94317.42;;;4.97;51.76
49915;BME280;35806;47.958;13.158;2023-03-18T02:23:20;94321.25;;;4.67;52.66
49915;BME280;35806;47.958;13.158;2023-03-18T02:25:54;94317.12;;;4.91;51.73
49915;BME280;35806;47.958;13.158;2023-03-18T02:28:27;94321.43;;;4.36;53.48
49915;BME280;35806;47.958;13.158;2023-03-18T02:30:58;94320.40;;;4.65;53.40
49915;BME280;35806;47.958;13.158;2023-03-18T02:33:30;94321.36;;;4.79;53.60
49915;BME280;35806;47.958;13.158;2023-03-18T02:36:03;94321.51;;;4.78;54.52
49915;BME280;35806;47.958;13.158;2023-03-18T02:38:31;94319.06;;;4.96;53.91
49915;BME280;35806;47.958;13.158;2023-03-18T02:40:58;94322.54;;;4.97;53.44
49915;BME280;35806;47.958;13.158;2023-03-18T02:43:28;94320.06;;;5.17;53.36
49915;BME280;35806;47.958;13.158;2023-03-18T02:46:11;94325.02;;;4.99;53.76
49915;BME280;35806;47.958;13.158;2023-03-18T02:48:43;94322.97;;;5.20;53.68
49915;BME280;35806;47.958;13.158;2023-03-18T02:51:14;94326.76;;;5.28;52.52
49915;BME280;35806;47.958;13.158;2023-03-18T02:53:42;94329.51;;;5.15;53.45
49915;BME280;35806;47.958;13.158;2023-03-18T02:56:10;94331.66;;;5.76;53.12
49915;BME280;35806;47.958;13.158;2023-03-18T02:58:37;94330.21;;;5.52;53.84
49915;BME280;35806;47.958;13.158;2023-03-18T03:01:07;94336.53;;;5.67;51.41
49915;BME280;35806;47.958;13.158;2023-03-18T03:03:35;94335.62;;;5.33;53.73
49915;BME280;35806;47.958;13.158;2023-03-18T03:06:02;94339.51;;;5.62;52.32
49915;BME280;35806;47.958;13.158;2023-03-18T03:08:30;94348.36;;;5.99;50.39
49915;BME280;35806;47.958;13.158;2023-03-18T03:10:57;94348.59;;;5.07;51.11
49915;BME280;35806;47.958;13.158;2023-03-18T03:13:24;94352.98;;;5.87;50.34
49915;BME280;35806;47.958;13.158;2023-03-18T03:15:52;94352.62;;;5.16;51.02
49915;BME280;35806;47.958;13.158;2023-03-18T03:18:19;94357.11;;;5.58;50.71
49915;BME280;35806;47.958;13.158;2023-03-18T03:20:47;94361.02;;;5.23;51.02
49915;BME280;35806;47.958;13.158;2023-03-18T03:23:14;94364.05;;;5.58;50.55
49915;BME280;35806;47.958;13.158;2023-03-18T03:25:42;94373.04;;;5.98;49.57
49915;BME280;35806;47.958;13.158;2023-03-18T03:28:11;94371.45;;;6.02;48.85
49915;BME280;35806;47.958;13.158;2023-03-18T03:30:39;94371.25;;;6.10;48.91
49915;BME280;35806;47.958;13.158;2023-03-18T03:33:07;94371.20;;;5.97;48.66
49915;BME280;35806;47.958;13.158;2023-03-18T03:35:35;94368.20;;;6.53;48.14
49915;BME280;35806;47.958;13.158;2023-03-18T03:38:03;94371.20;;;6.78;46.79
49915;BME280;35806;47.958;13.158;2023-03-18T03:40:30;94375.50;;;6.35;47.23
49915;BME280;35806;47.958;13.158;2023-03-18T03:42:58;94376.84;;;6.00;46.95
49915;BME280;35806;47.958;13.158;2023-03-18T03:45:25;94379.14;;;5.48;49.13
49915;BME280;35806;47.958;13.158;2023-03-18T03:47:53;94382.77;;;6.22;47.75
49915;BME280;35806;47.958;13.158;2023-03-18T03:50:21;94387.49;;;5.86;48.00
49915;BME280;35806;47.958;13.158;2023-03-18T03:52:49;94386.89;;;5.97;47.49
49915;BME280;35806;47.958;13.158;2023-03-18T03:55:18;94390.52;;;5.90;47.67
49915;BME280;35806;47.958;13.158;2023-03-18T03:57:46;94394.70;;;5.97;47.21
49915;BME280;35806;47.958;13.158;2023-03-18T04:00:17;94398.46;;;5.94;47.46
49915;BME280;35806;47.958;13.158;2023-03-18T04:02:46;94399.16;;;6.04;47.68
49915;BME280;35806;47.958;13.158;2023-03-18T04:05:14;94402.88;;;6.03;46.91
49915;BME280;35806;47.958;13.158;2023-03-18T04:07:44;94406.02;;;5.94;47.03
49915;BME280;35806;47.958;13.158;2023-03-18T04:10:17;94402.90;;;5.43;48.19
49915;BME280;35806;47.958;13.158;2023-03-18T04:12:46;94398.79;;;5.23;47.49
49915;BME280;35806;47.958;13.158;2023-03-18T04:15:15;94406.84;;;5.56;47.62
49915;BME280;35806;47.958;13.158;2023-03-18T04:17:42;94413.53;;;5.46;48.24
49915;BME280;35806;47.958;13.158;2023-03-18T04:20:11;94410.16;;;5.37;48.32
49915;BME280;35806;47.958;13.158;2023-03-18T04:22:38;94411.67;;;4.96;50.07
49915;BME280;35806;47.958;13.158;2023-03-18T04:25:06;94418.01;;;5.35;49.03
49915;BME280;35806;47.958;13.158;2023-03-18T04:27:39;94420.09;;;5.49;48.39
49915;BME280;35806;47.958;13.158;2023-03-18T04:30:09;94417.96;;;5.88;48.44
49915;BME280;35806;47.958;13.158;2023-03-18T04:32:37;94420.98;;;6.26;46.67
49915;BME280;35806;47.958;13.158;2023-03-18T04:35:05;94421.29;;;5.72;47.19
49915;BME280;35806;47.958;13.158;2023-03-18T04:37:33;94420.03;;;5.39;47.67
49915;BME280;35806;47.958;13.158;2023-03-18T04:40:00;94420.40;;;5.45;47.53
49915;BME280;35806;47.958;13.158;2023-03-18T04:42:27;94423.89;;;5.39;47.23
49915;BME280;35806;47.958;13.158;2023-03-18T04:44:54;94421.37;;;4.94;48.51
49915;BME280;35806;47.958;13.158;2023-03-18T04:47:21;94419.58;;;5.45;47.92
49915;BME280;35806;47.958;13.158;2023-03-18T04:49:47;94421.38;;;5.45;47.38
49915;BME280;35806;47.958;13.158;2023-03-18T04:52:14;94426.18;;;5.27;48.91
49915;BME280;35806;47.958;13.158;2023-03-18T04:54:42;94433.54;;;4.20;50.07
49915;BME280;35806;47.958;13.158;2023-03-18T04:57:08;94428.75;;;5.65;47.89
49915;BME280;35806;47.958;13.158;2023-03-18T04:59:35;94428.40;;;5.41;48.28
49915;BME280;35806;47.958;13.158;2023-03-18T05:02:03;94431.14;;;5.95;47.01
49915;BME280;35806;47.958;13.158;2023-03-18T05:04:30;94430.97;;;5.64;46.74
49915;BME280;35806;47.958;13.158;2023-03-18T05:06:58;94428.27;;;5.54;47.18
49915;BME280;35806;47.958;13.158;2023-03-18T05:09:26;94430.65;;;5.47;47.48
49915;BME280;35806;47.958;13.158;2023-03-18T05:11:53;94434.10;;;5.45;47.57
49915;BME280;35806;47.958;13.158;2023-03-18T05:14:21;94434.12;;;5.45;47.42
49915;BME280;35806;47.958;13.158;2023-03-18T05:16:48;94435.43;;;5.34;47.26
49915;BME280;35806;47.958;13.158;2023-03-18T05:19:15;94439.41;;;5.16;48.41
49915;BME280;35806;47.958;13.158;2023-03-18T05:21:43;94438.22;;;5.50;48.03
49915;BME280;35806;47.958;13.158;2023-03-18T05:24:10;94439.05;;;4.72;49.36
49915;BME280;35806;47.958;13.158;2023-03-18T05:26:37;94439.35;;;5.16;48.89
49915;BME280;35806;47.958;13.158;2023-03-18T05:29:05;94441.59;;;5.15;48.75
49915;BME280;35806;47.958;13.158;2023-03-18T05:31:31;94444.92;;;5.67;49.40
49915;BME280;35806;47.958;13.158;2023-03-18T05:33:58;94443.49;;;5.32;49.28
49915;BME280;35806;47.958;13.158;2023-03-18T05:36:25;94442.64;;;5.46;48.32
49915;BME280;35806;47.958;13.158;2023-03-18T05:38:53;94439.64;;;6.22;46.84
49915;BME280;35806;47.958;13.158;2023-03-18T05:41:20;94444.72;;;5.88;47.41
49915;BME280;35806;47.958;13.158;2023-03-18T05:43:47;94440.52;;;6.29;45.98
49915;BME280;35806;47.958;13.158;2023-03-18T05:46:14;94441.00;;;7.32;44.89
49915;BME280;35806;47.958;13.158;2023-03-18T05:48:42;94442.88;;;6.95;45.04
49915;BME280;35806;47.958;13.158;2023-03-18T05:51:09;94440.85;;;6.55;45.75
49915;BME280;35806;47.958;13.158;2023-03-18T05:53:36;94439.14;;;7.40;44.69
49915;BME280;35806;47.958;13.158;2023-03-18T05:56:04;94441.87;;;7.74;45.06
49915;BME280;35806;47.958;13.158;2023-03-18T05:58:31;94442.64;;;7.89;45.14
49915;BME280;35806;47.958;13.158;2023-03-18T06:00:58;94445.26;;;8.23;44.66
49915;BME280;35806;47.958;13.158;2023-03-18T06:03:26;94446.18;;;8.18;42.32
49915;BME280;35806;47.958;13.158;2023-03-18T06:05:53;94443.18;;;8.80;42.58
49915;BME280;35806;47.958;13.158;2023-03-18T06:08:21;94444.08;;;9.47;42.42
49915;BME280;35806;47.958;13.158;2023-03-18T06:10:47;94446.00;;;8.85;41.48
49915;BME280;35806;47.958;13.158;2023-03-18T06:13:14;94443.89;;;10.03;39.60
49915;BME280;35806;47.958;13.158;2023-03-18T06:15:42;94446.05;;;9.92;39.51
49915;BME280;35806;47.958;13.158;2023-03-18T06:18:09;94447.87;;;10.14;39.94
49915;BME280;35806;47.958;13.158;2023-03-18T06:20:37;94441.77;;;10.31;39.81
49915;BME280;35806;47.958;13.158;2023-03-18T06:23:05;94448.38;;;9.91;40.60
49915;BME280;35806;47.958;13.158;2023-03-18T06:25:32;94440.87;;;11.41;39.03
49915;BME280;35806;47.958;13.158;2023-03-18T06:28:00;94440.06;;;11.64;37.45
49915;BME280;35806;47.958;13.158;2023-03-18T06:30:27;94436.53;;;11.84;37.28
49915;BME280;35806;47.958;13.158;2023-03-18T06:32:55;94437.21;;;10.71;37.70
49915;BME280;35806;47.958;13.158;2023-03-18T06:35:22;94440.38;;;9.53;39.77
49915;BME280;35806;47.958;13.158;2023-03-18T06:37:50;94435.47;;;11.88;34.70
49915;BME280;35806;47.958;13.158;2023-03-18T06:40:18;94438.51;;;12.80;33.59
49915;BME280;35806;47.958;13.158;2023-03-18T06:42:45;94437.77;;;12.92;34.33
49915;BME280;35806;47.958;13.158;2023-03-18T06:45:13;94439.53;;;13.50;33.11
49915;BME280;35806;47.958;13.158;2023-03-18T06:47:40;94437.76;;;13.22;33.28
49915;BME280;35806;47.958;13.158;2023-03-18T06:50:09;94437.99;;;13.42;32.51
49915;BME280;35806;47.958;13.158;2023-03-18T06:52:37;94436.41;;;12.67;33.24
49915;BME280;35806;47.958;13.158;2023-03-18T06:55:04;94437.32;;;12.00;35.63
49915;BME280;35806;47.958;13.158;2023-03-18T06:57:32;94441.06;;;12.85;34.09
49915;BME280;35806;47.958;13.158;2023-03-18T06:59:59;94442.66;;;12.15;34.20
49915;BME280;35806;47.958;13.158;2023-03-18T07:02:26;94445.07;;;12.54;35.67
49915;BME280;35806;47.958;13.158;2023-03-18T07:04:54;94443.24;;;12.62;35.25
49915;BME280;35806;47.958;13.158;2023-03-18T07:07:21;94444.10;;;12.43;36.07
49915;BME280;35806;47.958;13.158;2023-03-18T07:09:49;94448.60;;;12.13;36.00
49915;BME280;35806;47.958;13.158;2023-03-18T07:12:16;94451.74;;;12.05;36.17
49915;BME280;35806;47.958;13.158;2023-03-18T07:14:43;94454.29;;;11.76;37.41
49915;BME280;35806;47.958;13.158;2023-03-18T07:17:11;94456.35;;;12.07;36.87
49915;BME280;35806;47.958;13.158;2023-03-18T07:19:38;94458.02;;;11.67;37.37
49915;BME280;35806;47.958;13.158;2023-03-18T07:22:05;94456.48;;;12.25;35.87
49915;BME280;35806;47.958;13.158;2023-03-18T07:24:33;94458.53;;;12.23;36.63
49915;BME280;35806;47.958;13.158;2023-03-18T07:27:00;94458.85;;;12.53;36.21
49915;BME280;35806;47.958;13.158;2023-03-18T07:29:28;94460.20;;;13.58;34.56
49915;BME280;35806;47.958;13.158;2023-03-18T07:31:55;94460.64;;;13.39;35.02
49915;BME280;35806;47.958;13.158;2023-03-18T07:34:23;94463.38;;;13.24;34.85
49915;BME280;35806;47.958;13.158;2023-03-18T07:36:50;94461.24;;;13.77;32.85
49915;BME280;35806;47.958;13.158;2023-03-18T07:39:19;94462.39;;;13.92;32.43
49915;BME280;35806;47.958;13.158;2023-03-18T07:41:46;94460.44;;;13.60;34.01
49915;BME280;35806;47.958;13.158;2023-03-18T07:44:14;94462.47;;;14.22;33.27
49915;BME280;35806;47.958;13.158;2023-03-18T07:46:41;94460.57;;;14.54;32.80
49915;BME280;35806;47.958;13.158;2023-03-18T07:49:09;94461.71;;;14.20;32.86
49915;BME280;35806;47.958;13.158;2023-03-18T07:51:36;94460.48;;;14.63;33.05
49915;BME280;35806;47.958;13.158;2023-03-18T07:54:04;94457.52;;;15.21;31.15
49915;BME280;35806;47.958;13.158;2023-03-18T07:56:31;94456.93;;;15.98;30.91
49915;BME280;35806;47.958;13.158;2023-03-18T07:58:59;94457.66;;;16.13;31.94
49915;BME280;35806;47.958;13.158;2023-03-18T08:01:26;94456.37;;;16.40;30.62
49915;BME280;35806;47.958;13.158;2023-03-18T08:03:53;94457.31;;;16.73;29.80
49915;BME280;35806;47.958;13.158;2023-03-18T08:06:21;94463.43;;;17.12;28.46
49915;BME280;35806;47.958;13.158;2023-03-18T08:08:49;94463.18;;;17.64;28.41
49915;BME280;35806;47.958;13.158;2023-03-18T08:11:16;94463.29;;;17.86;27.12
49915;BME280;35806;47.958;13.158;2023-03-18T08:13:44;94463.44;;;17.36;27.99
49915;BME280;35806;47.958;13.158;2023-03-18T08:16:12;94467.03;;;17.82;27.90
49915;BME280;35806;47.958;13.158;2023-03-18T08:18:39;94465.89;;;18.20;26.81
49915;BME280;35806;47.958;13.158;2023-03-18T08:21:07;94468.04;;;17.76;28.97
49915;BME280;35806;47.958;13.158;2023-03-18T08:23:34;94467.72;;;17.79;30.10
49915;BME280;35806;47.958;13.158;2023-03-18T08:26:02;94469.67;;;17.71;30.70
49915;BME280;35806;47.958;13.158;2023-03-18T08:28:29;94469.60;;;18.95;29.27
49915;BME280;35806;47.958;13.158;2023-03-18T08:30:57;94473.84;;;18.19;29.83
49915;BME280;35806;47.958;13.158;2023-03-18T08:33:26;94473.04;;;17.67;29.73
49915;BME280;35806;47.958;13.158;2023-03-18T08:35:53;94472.90;;;17.07;31.26
49915;BME280;35806;47.958;13.158;2023-03-18T08:38:21;94475.86;;;16.51;31.14
49915;BME280;35806;47.958;13.158;2023-03-18T08:40:48;94474.85;;;16.32;32.22
49915;BME280;35806;47.958;13.158;2023-03-18T08:43:16;94473.88;;;17.78;30.53
49915;BME280;35806;47.958;13.158;2023-03-18T08:45:43;94475.85;;;17.17;30.14
49915;BME280;35806;47.958;13.158;2023-03-18T08:48:11;94477.29;;;18.24;30.90
49915;BME280;35806;47.958;13.158;2023-03-18T08:50:39;94477.63;;;18.67;30.64
49915;BME280;35806;47.958;13.158;2023-03-18T08:53:07;94476.04;;;19.63;28.83
49915;BME280;35806;47.958;13.158;2023-03-18T08:55:35;94479.35;;;20.28;28.68
49915;BME280;35806;47.958;13.158;2023-03-18T08:58:03;94478.85;;;20.17;27.17
49915;BME280;35806;47.958;13.158;2023-03-18T09:00:31;94477.16;;;20.71;26.53
49915;BME280;35806;47.958;13.158;2023-03-18T09:02:59;94474.44;;;20.85;24.04
49915;BME280;35806;47.958;13.158;2023-03-18T09:05:26;94477.72;;;19.95;25.59
49915;BME280;35806;47.958;13.158;2023-03-18T09:07:53;94478.45;;;19.58;24.13
49915;BME280;35806;47.958;13.158;2023-03-18T09:10:21;94477.99;;;19.09;25.32
49915;BME280;35806;47.958;13.158;2023-03-18T09:12:48;94478.23;;;19.01;24.96
49915;BME280;35806;47.958;13.158;2023-03-18T09:15:17;94474.19;;;18.24;25.65
49915;BME280;35806;47.958;13.158;2023-03-18T09:17:45;94473.83;;;19.42;24.20
49915;BME280;35806;47.958;13.158;2023-03-18T09:20:14;94475.19;;;17.48;26.59
49915;BME280;35806;47.958;13.158;2023-03-18T09:22:43;94475.98;;;16.79;27.35
49915;BME280;35806;47.958;13.158;2023-03-18T09:25:11;94476.24;;;17.30;27.99
49915;BME280;35806;47.958;13.158;2023-03-18T09:27:38;94471.06;;;18.35;26.64
49915;BME280;35806;47.958;13.158;2023-03-18T09:30:07;94469.34;;;17.98;26.74
49915;BME280;35806;47.958;13.158;2023-03-18T09:32:34;94468.46;;;18.91;26.43
49915;BME280;35806;47.958;13.158;2023-03-18T09:35:02;94465.85;;;18.24;26.33
49915;BME280;35806;47.958;13.158;2023-03-18T09:37:29;94464.35;;;19.23;25.53
49915;BME280;35806;47.958;13.158;2023-03-18T09:39:56;94466.04;;;18.94;25.70
49915;BME280;35806;47.958;13.158;2023-03-18T09:42:37;94460.93;;;19.40;25.87
49915;BME280;35806;47.958;13.158;2023-03-18T09:45:15;94462.50;;;16.92;29.29
49915;BME280;35806;47.958;13.158;2023-03-18T09:47:54;94462.30;;;18.58;27.04
49915;BME280;35806;47.958;13.158;2023-03-18T09:50:35;94459.02;;;18.97;26.14
49915;BME280;35806;47.958;13.158;2023-03-18T09:53:13;94454.51;;;19.76;25.42
49915;BME280;35806;47.958;13.158;2023-03-18T09:55:45;94453.83;;;20.24;26.38
49915;BME280;35806;47.958;13.158;2023-03-18T09:58:20;94450.99;;;20.57;24.43
49915;BME280;35806;47.958;13.158;2023-03-18T10:00:52;94457.41;;;20.51;24.41
49915;BME280;35806;47.958;13.158;2023-03-18T10:03:29;94454.27;;;20.89;24.27
49915;BME280;35806;47.958;13.158;2023-03-18T10:06:04;94458.41;;;20.07;23.83
49915;BME280;35806;47.958;13.158;2023-03-18T10:08:42;94456.93;;;21.14;23.68
49915;BME280;35806;47.958;13.158;2023-03-18T10:11:19;94462.02;;;19.92;24.86
49915;BME280;35806;47.958;13.158;2023-03-18T10:13:55;94458.93;;;20.44;25.12
49915;BME280;35806;47.958;13.158;2023-03-18T10:16:29;94460.00;;;20.39;24.64
49915;BME280;35806;47.958;13.158;2023-03-18T10:18:59;94462.51;;;21.64;24.35
49915;BME280;35806;47.958;13.158;2023-03-18T10:21:36;94459.07;;;21.94;23.78
49915;BME280;35806;47.958;13.158;2023-03-18T10:24:18;94457.61;;;21.72;23.49
49915;BME280;35806;47.958;13.158;2023-03-18T10:26:57;94455.27;;;21.79;23.98
49915;BME280;35806;47.958;13.158;2023-03-18T10:29:35;94456.87;;;21.52;23.32
49915;BME280;35806;47.958;13.158;2023-03-18T10:32:13;94459.35;;;21.61;23.34
49915;BME280;35806;47.958;13.158;2023-03-18T10:34:55;94455.64;;;20.51;23.91
49915;BME280;35806;47.958;13.158;2023-03-18T10:37:30;94457.75;;;18.97;25.89
49915;BME280;35806;47.958;13.158;2023-03-18T10:40:08;94456.01;;;16.07;29.80
49915;BME280;35806;47.958;13.158;2023-03-18T10:42:36;94451.46;;;16.49;29.79
49915;BME280;35806;47.958;13.158;2023-03-18T10:45:14;94452.81;;;18.22;27.60
49915;BME280;35806;47.958;13.158;2023-03-18T10:47:47;94444.54;;;19.98;25.77
49915;BME280;35806;47.958;13.158;2023-03-18T10:50:20;94440.94;;;20.18;24.98
49915;BME280;35806;47.958;13.158;2023-03-18T10:52:53;94447.86;;;16.68;29.79
49915;BME280;35806;47.958;13.158;2023-03-18T10:55:28;94448.00;;;16.98;30.58
49915;BME280;35806;47.958;13.158;2023-03-18T10:57:57;94446.03;;;18.62;28.45
49915;BME280;35806;47.958;13.158;2023-03-18T11:00:28;94444.58;;;18.82;26.43
49915;BME280;35806;47.958;13.158;2023-03-18T11:02:55;94439.22;;;20.12;25.76
49915;BME280;35806;47.958;13.158;2023-03-18T11:05:24;94435.04;;;20.15;25.08
49915;BME280;35806;47.958;13.158;2023-03-18T11:07:58;94436.73;;;19.45;26.95
49915;BME280;35806;47.958;13.158;2023-03-18T11:10:27;94434.47;;;20.44;25.84
49915;BME280;35806;47.958;13.158;2023-03-18T11:12:57;94433.32;;;19.33;26.32
49915;BME280;35806;47.958;13.158;2023-03-18T11:15:25;94432.28;;;19.25;27.15
49915;BME280;35806;47.958;13.158;2023-03-18T11:17:57;94430.44;;;19.62;26.60
49915;BME280;35806;47.958;13.158;2023-03-18T11:20:32;94429.86;;;19.20;26.03
49915;BME280;35806;47.958;13.158;2023-03-18T11:23:04;94430.30;;;19.24;26.95
49915;BME280;35806;47.958;13.158;2023-03-18T11:25:32;94431.80;;;18.11;28.12
49915;BME280;35806;47.958;13.158;2023-03-18T11:28:03;94432.66;;;18.51;27.89
49915;BME280;35806;47.958;13.158;2023-03-18T11:30:43;94430.94;;;18.33;27.90
49915;BME280;35806;47.958;13.158;2023-03-18T11:33:14;94428.39;;;18.67;29.12
49915;BME280;35806;47.958;13.158;2023-03-18T11:35:45;94431.40;;;18.89;27.52
49915;BME280;35806;47.958;13.158;2023-03-18T11:38:16;94427.31;;;18.09;29.59
49915;BME280;35806;47.958;13.158;2023-03-18T11:40:44;94430.28;;;18.74;28.73
49915;BME280;35806;47.958;13.158;2023-03-18T11:43:16;94428.04;;;18.81;28.26
49915;BME280;35806;47.958;13.158;2023-03-18T11:45:49;94426.20;;;19.33;27.38
49915;BME280;35806;47.958;13.158;2023-03-18T11:48:28;94424.80;;;19.05;26.24
49915;BME280;35806;47.958;13.158;2023-03-18T11:51:05;94425.18;;;20.09;26.54
49915;BME280;35806;47.958;13.158;2023-03-18T11:53:44;94420.75;;;20.60;26.36
49915;BME280;35806;47.958;13.158;2023-03-18T11:56:22;94414.57;;;20.24;25.86
49915;BME280;35806;47.958;13.158;2023-03-18T11:59:05;94405.59;;;20.88;25.49
49915;BME280;35806;47.958;13.158;2023-03-18T12:01:45;94403.23;;;21.56;24.23
49915;BME280;35806;47.958;13.158;2023-03-18T12:04:54;94402.26;;;21.91;24.40
49915;BME280;35806;47.958;13.158;2023-03-18T12:07:44;94396.48;;;21.60;23.10
49915;BME280;35806;47.958;13.158;2023-03-18T12:10:21;94395.45;;;22.16;21.64
49915;BME280;35806;47.958;13.158;2023-03-18T12:13:02;94390.85;;;21.97;21.97
49915;BME280;35806;47.958;13.158;2023-03-18T12:15:45;94385.01;;;22.34;22.66
49915;BME280;35806;47.958;13.158;2023-03-18T12:18:23;94380.60;;;22.94;21.39
49915;BME280;35806;47.958;13.158;2023-03-18T12:20:59;94379.67;;;22.77;21.13
49915;BME280;35806;47.958;13.158;2023-03-18T12:23:39;94376.99;;;23.78;21.28
49915;BME280;35806;47.958;13.158;2023-03-18T12:26:13;94380.48;;;23.66;21.39
49915;BME280;35806;47.958;13.158;2023-03-18T12:28:50;94379.76;;;23.28;21.99
49915;BME280;35806;47.958;13.158;2023-03-18T12:31:30;94383.10;;;21.49;22.96
49915;BME280;35806;47.958;13.158;2023-03-18T12:34:02;94378.91;;;22.51;22.72
49915;BME280;35806;47.958;13.158;2023-03-18T12:36:37;94377.83;;;22.50;21.70
49915;BME280;35806;47.958;13.158;2023-03-18T12:39:20;94377.46;;;22.92;21.05
49915;BME280;35806;47.958;13.158;2023-03-18T12:41:59;94376.46;;;23.08;21.74
49915;BME280;35806;47.958;13.158;2023-03-18T12:44:43;94372.05;;;23.43;20.44
49915;BME280;35806;47.958;13.158;2023-03-18T12:47:16;94372.15;;;22.81;21.71
49915;BME280;35806;47.958;13.158;2023-03-18T12:49:47;94364.34;;;23.43;21.03
49915;BME280;35806;47.958;13.158;2023-03-18T12:52:24;94363.02;;;23.92;20.56
49915;BME280;35806;47.958;13.158;2023-03-18T12:54:58;94356.70;;;24.66;20.38
49915;BME280;35806;47.958;13.158;2023-03-18T12:57:35;94354.02;;;23.90;20.99
49915;BME280;35806;47.958;13.158;2023-03-18T13:00:12;94352.78;;;24.05;22.17
49915;BME280;35806;47.958;13.158;2023-03-18T13:02:48;94349.06;;;23.68;20.68
49915;BME280;35806;47.958;13.158;2023-03-18T13:05:24;94347.60;;;23.52;20.07
49915;BME280;35806;47.958;13.158;2023-03-18T13:08:05;94342.13;;;23.31;20.05
49915;BME280;35806;47.958;13.158;2023-03-18T13:10:40;94341.39;;;23.49;20.24
49915;BME280;35806;47.958;13.158;2023-03-18T13:13:11;94344.66;;;23.14;21.48
49915;BME280;35806;47.958;13.158;2023-03-18T13:15:41;94347.56;;;22.37;21.34
49915;BME280;35806;47.958;13.158;2023-03-18T13:18:16;94346.10;;;21.25;22.09
49915;BME280;35806;47.958;13.158;2023-03-18T13:20:46;94344.99;;;22.01;22.23
49915;BME280;35806;47.958;13.158;2023-03-18T13:23:28;94345.65;;;21.40;23.05